createdAt,value
2022-08-27T00:01:58.632Z,22.10
2022-08-27T00:07:01.488Z,22.00
2022-08-27T00:12:08.031Z,22.00
2022-08-27T00:17:11.062Z,22.00
2022-08-27T00:22:13.827Z,22.00
2022-08-27T00:27:18.879Z,21.90
2022-08-27T00:32:21.597Z,21.70
2022-08-27T00:37:24.334Z,21.70
2022-08-27T00:42:28.374Z,21.80
2022-08-27T00:47:37.990Z,22.00
2022-08-27T00:52:45.515Z,22.00
2022-08-27T00:57:56.121Z,22.10
2022-08-27T01:02:58.812Z,22.00
2022-08-27T01:08:09.328Z,22.10
2022-08-27T01:13:19.793Z,22.20
2022-08-27T01:18:22.511Z,22.30
2022-08-27T01:23:33.075Z,22.30
2022-08-27T01:28:38.662Z,22.30
2022-08-27T01:33:55.559Z,22.10
2022-08-27T01:38:58.304Z,21.90
2022-08-27T01:44:02.361Z,21.70
2022-08-27T01:49:05.231Z,21.80
2022-08-27T01:54:07.936Z,21.80
2022-08-27T01:59:11.931Z,21.80
2022-08-27T02:04:14.627Z,21.70
2022-08-27T02:09:17.325Z,21.60
2022-08-27T02:14:22.791Z,21.70
2022-08-27T02:19:26.834Z,21.60
2022-08-27T02:24:29.694Z,21.80
2022-08-27T02:29:34.584Z,22.00
2022-08-27T02:34:37.420Z,22.00
2022-08-27T02:39:43.130Z,21.80
2022-08-27T02:44:50.020Z,21.60
2022-08-27T02:49:52.745Z,21.50
2022-08-27T02:54:55.415Z,21.50
2022-08-27T02:59:59.827Z,21.40
2022-08-27T03:05:02.516Z,21.30
2022-08-27T03:10:06.619Z,21.40
2022-08-27T03:15:14.087Z,21.50
2022-08-27T03:20:16.785Z,21.60
2022-08-27T03:25:19.949Z,21.50
2022-08-27T03:30:25.256Z,21.60
2022-08-27T03:35:27.943Z,21.60
2022-08-27T03:40:32.978Z,21.60
2022-08-27T03:45:48.505Z,21.70
2022-08-27T03:50:59.883Z,21.80
2022-08-27T03:56:02.812Z,21.80
2022-08-27T04:01:08.343Z,21.70
2022-08-27T04:06:11.019Z,21.60
2022-08-27T04:11:13.759Z,21.60
2022-08-27T04:16:18.404Z,21.60
2022-08-27T04:21:22.799Z,21.50
2022-08-27T04:26:26.237Z,21.50
2022-08-27T04:31:30.273Z,21.40
2022-08-27T04:36:32.992Z,21.30
2022-08-27T04:41:35.957Z,21.40
2022-08-27T04:46:41.636Z,21.60
2022-08-27T04:51:50.879Z,21.80
2022-08-27T04:56:53.833Z,21.90
2022-08-27T05:01:57.927Z,22.00
2022-08-27T05:07:01.424Z,21.90
2022-08-27T05:12:04.690Z,21.90
2022-08-27T05:17:08.690Z,21.90
2022-08-27T05:22:11.461Z,21.90
2022-08-27T05:27:14.155Z,21.80
2022-08-27T05:32:18.255Z,21.80
2022-08-27T05:37:20.963Z,21.70
2022-08-27T05:42:23.625Z,21.60
2022-08-27T05:47:28.168Z,21.70
2022-08-27T05:52:30.985Z,21.80
2022-08-27T05:57:33.668Z,21.90
2022-08-27T06:02:38.977Z,21.80
2022-08-27T06:07:41.756Z,21.90
2022-08-27T06:12:44.551Z,21.90
2022-08-27T06:17:48.576Z,21.80
2022-08-27T06:22:51.294Z,21.80
2022-08-27T06:27:54.020Z,21.80
2022-08-27T06:32:58.082Z,21.60
2022-08-27T06:38:00.813Z,21.40
2022-08-27T06:43:03.490Z,21.10
2022-08-27T06:48:07.633Z,21.20
2022-08-27T06:53:10.814Z,21.40
2022-08-27T06:58:14.432Z,21.40
2022-08-27T07:03:18.767Z,21.50
2022-08-27T07:08:21.435Z,21.60
2022-08-27T07:13:24.188Z,21.60
2022-08-27T07:18:28.695Z,21.70
2022-08-27T07:23:32.666Z,21.80
2022-08-27T07:28:35.395Z,21.80
2022-08-27T07:33:46.121Z,21.80
2022-08-27T07:39:01.338Z,21.70
2022-08-27T07:44:26.039Z,21.60
2022-08-27T07:49:31.807Z,21.60
2022-08-27T07:54:34.824Z,21.50
2022-08-27T07:59:37.625Z,21.50
2022-08-27T08:04:41.633Z,21.20
2022-08-27T08:09:44.308Z,21.10
2022-08-27T08:14:47.136Z,21.00
2022-08-27T08:20:15.417Z,21.10
2022-08-27T08:25:14.042Z,21.20
2022-08-27T08:30:18.044Z,21.30
2022-08-27T08:35:24.280Z,21.20
2022-08-27T08:40:32.797Z,21.10
2022-08-27T08:45:39.663Z,21.00
2022-08-27T08:50:53.043Z,20.90
2022-08-27T08:55:59.507Z,21.00
2022-08-27T09:01:05.253Z,21.10
2022-08-27T09:06:15.201Z,21.20
2022-08-27T09:11:24.460Z,21.10
2022-08-27T09:16:27.227Z,21.20
2022-08-27T09:21:37.234Z,21.30
2022-08-27T09:26:42.181Z,21.20
2022-08-27T09:31:46.995Z,21.10
2022-08-27T09:36:55.885Z,20.90
2022-08-27T09:41:58.719Z,20.80
2022-08-27T09:47:03.894Z,20.80
2022-08-27T09:52:08.864Z,20.90
2022-08-27T09:57:13.457Z,21.00
2022-08-27T10:02:18.807Z,21.10
2022-08-27T10:07:32.827Z,21.10
2022-08-27T10:12:46.028Z,21.10
2022-08-27T10:17:58.460Z,21.00
2022-08-27T10:23:12.663Z,21.00
2022-08-27T10:28:28.055Z,21.00
2022-08-27T10:33:39.327Z,21.20
2022-08-27T10:38:49.440Z,21.50
2022-08-27T10:44:31.485Z,22.10
2022-08-27T10:49:44.428Z,22.70
2022-08-27T10:54:54.356Z,23.30
2022-08-27T11:00:05.164Z,23.50
2022-08-27T11:05:17.048Z,23.50
2022-08-27T11:10:27.348Z,23.50
2022-08-27T11:15:34.378Z,23.50
2022-08-27T11:20:42.376Z,23.70
2022-08-27T11:25:52.625Z,24.00
2022-08-27T11:31:02.324Z,23.90
2022-08-27T11:36:16.825Z,23.80
2022-08-27T11:41:51.891Z,23.70
2022-08-27T11:46:57.811Z,23.60
2022-08-27T11:52:03.440Z,23.70
2022-08-27T11:57:16.107Z,23.80
2022-08-27T12:02:25.930Z,23.70
2022-08-27T12:07:34.680Z,23.40
2022-08-27T12:12:49.346Z,23.40
2022-08-27T12:18:06.230Z,23.40
2022-08-27T12:23:39.175Z,23.40
2022-08-27T12:28:44.117Z,23.90
2022-08-27T12:33:48.910Z,24.00
2022-08-27T12:38:55.036Z,24.40
2022-08-27T12:44:08.636Z,24.60
2022-08-27T12:49:38.309Z,24.90
2022-08-27T12:54:43.967Z,24.60
2022-08-27T13:00:12.544Z,23.90
2022-08-27T13:05:20.104Z,23.60
2022-08-27T13:10:27.574Z,23.10
2022-08-27T13:15:39.328Z,23.10
2022-08-27T13:20:52.579Z,22.80
2022-08-27T13:26:00.367Z,22.70
2022-08-27T13:31:10.323Z,22.70
2022-08-27T13:42:46.705Z,22.60
2022-08-27T13:47:53.279Z,22.00
2022-08-27T13:53:23.801Z,21.70
2022-08-27T13:58:29.062Z,21.40
2022-08-27T14:03:35.877Z,21.70
2022-08-27T14:08:38.810Z,21.80
2022-08-27T14:14:01.471Z,22.20
2022-08-27T14:19:13.925Z,22.70
2022-08-27T14:24:23.156Z,23.30
2022-08-27T14:29:36.994Z,24.00
2022-08-27T14:34:41.380Z,24.80
2022-08-27T14:39:45.215Z,25.40
2022-08-27T14:44:53.635Z,26.30
2022-08-27T14:50:01.832Z,26.90
2022-08-27T14:55:10.669Z,26.10
2022-08-27T15:00:16.877Z,25.60
2022-08-27T15:05:24.991Z,24.90
2022-08-27T15:10:30.513Z,24.40
2022-08-27T15:15:33.690Z,24.00
2022-08-27T15:20:38.126Z,23.40
2022-08-27T15:25:42.726Z,22.90
2022-08-27T15:30:48.498Z,22.50
2022-08-27T15:35:55.039Z,22.30
2022-08-27T15:40:58.027Z,21.90
2022-08-27T15:46:01.495Z,21.50
2022-08-27T15:51:10.387Z,21.30
2022-08-27T15:56:17.446Z,21.20
2022-08-27T16:01:33.239Z,21.40
2022-08-27T16:06:45.423Z,21.40
2022-08-27T16:11:49.581Z,21.40
2022-08-27T16:16:59.527Z,21.60
2022-08-27T16:22:10.496Z,21.60
2022-08-27T16:27:20.323Z,21.70
2022-08-27T16:32:31.600Z,22.10
2022-08-27T16:37:36.859Z,22.30
2022-08-27T16:42:47.566Z,22.20
2022-08-27T16:48:06.692Z,22.10
2022-08-27T16:53:25.934Z,22.10
2022-08-27T16:58:38.768Z,22.10
2022-08-27T17:04:07.478Z,22.10
2022-08-27T17:10:07.776Z,22.00
2022-08-27T17:34:52.885Z,21.80
2022-08-27T17:41:48.452Z,21.70
2022-08-27T17:55:11.569Z,21.40
2022-08-27T18:13:50.876Z,20.70
2022-08-27T18:19:37.559Z,20.60
2022-08-27T18:26:39.353Z,20.60
2022-08-27T18:32:25.448Z,20.60
2022-08-27T19:03:01.129Z,20.50
2022-08-27T19:14:27.769Z,20.20
2022-08-27T20:15:31.954Z,20.50
2022-08-27T20:20:38.525Z,20.50
2022-08-27T20:25:47.874Z,20.60
2022-08-27T20:30:53.303Z,20.60
2022-08-27T20:36:03.895Z,20.70
2022-08-27T20:41:11.942Z,20.60
2022-08-27T20:46:18.438Z,20.50
2022-08-27T20:51:22.566Z,20.50
2022-08-27T20:56:29.952Z,20.50
2022-08-27T21:01:41.677Z,20.50
2022-08-27T21:18:29.886Z,20.40
2022-08-27T21:23:33.421Z,20.00
2022-08-27T21:28:39.820Z,19.80
2022-08-27T21:33:43.942Z,19.70
2022-08-27T21:38:46.843Z,19.70
2022-08-27T21:43:49.623Z,19.60
2022-08-27T21:48:58.867Z,19.50
2022-08-27T21:54:01.868Z,19.50
2022-08-27T21:59:04.572Z,19.50
2022-08-27T22:04:08.722Z,19.40
2022-08-27T22:09:11.430Z,19.40
2022-08-27T22:14:17.068Z,19.40
2022-08-27T22:19:21.523Z,19.50
2022-08-27T22:24:24.437Z,19.40
2022-08-27T22:29:27.093Z,19.30
2022-08-27T22:34:35.088Z,19.20
2022-08-27T22:39:37.941Z,19.20
2022-08-27T22:44:41.021Z,19.20
2022-08-27T22:49:45.237Z,19.30
2022-08-27T22:54:47.928Z,19.20
2022-08-27T22:59:50.760Z,19.10
2022-08-27T23:04:55.800Z,19.20
2022-08-27T23:09:58.875Z,19.20
2022-08-27T23:15:01.558Z,19.20
2022-08-27T23:20:08.136Z,19.20
2022-08-27T23:25:29.379Z,19.30
2022-08-27T23:30:36.064Z,19.20
2022-08-27T23:35:41.197Z,19.20
2022-08-27T23:40:45.376Z,19.10
2022-08-27T23:45:48.167Z,19.00
2022-08-27T23:51:13.188Z,19.20
2022-08-27T23:56:15.954Z,19.20
